TDCF/DCF METAR and TAF weather

Enter ICAO airport designator
Station Type Date Time Source
TDCF METAR 2019/05/25 15:00 UTC NOAA

TDCF 251500Z 32005KT 9999 BKN018 30/21 Q1013


Station Type Date Time Source
TDCF Decoded METAR 2019/05/25 15:00 UTC NOAA

Canefield Airport, Dominica (TDCF) 15-32N 061-24W 5M
May 25, 2019 - 11:00 AM EDT / 2019.05.25 1500 UTC
Wind: from the NW (320 degrees) at 6 MPH (5 KT):0
Visibility: greater than 7 mile(s):0
Sky conditions: mostly cloudy
Temperature: 86 F (30 C)
Dew Point: 69 F (21 C)
Relative Humidity: 58%
Pressure (altimeter): 29.91 in. Hg (1013 hPa)
ob: TDCF 251500Z 32005KT 9999 BKN018 30/21 Q1013
cycle: 15

Station Type Date Time Source
TDCF TAF 2012/05/01 18:15 UTC NOAA

TAF TDCF 011600Z 0118/0218 110010KT 9999 SCT018 BKN030
TEMPO 0118/0206 6000 SHRA BKN014 BKN070

Example: see airport list